Weather at Tokmok Airport

Public forecast

Using degrees Celsius for public forecast. Weather courtesy of forecast.io.

Closest aviation weather report (METAR) to Tokmok Airport

Closest report is Manas International Airport, 40.2 nm (74.5 km) WNW. Retrieved 2020/09/28 07:30 UTC (23 minutes ago):

UCFM 280730Z 25004MPS 200V320 CAVOK 17/M01 Q1021 R26/0///95 NOSIG

Closest aviation forecast (TAF) to Tokmok Airport

Closest forecast is Manas International Airport, 40.2 nm (74.5 km) WNW. Retrieved 2020/09/28 06:00 UTC (2 hours ago):

TAF UCFM 280448Z 2806/2906 34003G08MPS 9999 NSC TEMPO 2809/2815 04007G12MPS BECMG 2815/2816 06003G08MPS TEMPO 2820/2904 2000 BR FU FEW003